createdAt,value
2023-09-18T00:00:09.059Z,22.90
2023-09-18T00:03:11.049Z,21.80
2023-09-18T00:06:12.075Z,20.30
2023-09-18T00:09:13.057Z,26.90
2023-09-18T00:12:14.046Z,23.10
2023-09-18T00:15:16.059Z,20.80
2023-09-18T00:18:17.130Z,28.70
2023-09-18T00:21:18.081Z,21.20
2023-09-18T00:24:20.089Z,33.90
2023-09-18T00:27:21.118Z,29.40
2023-09-18T00:30:22.077Z,24.50
2023-09-18T00:33:23.165Z,29.20
2023-09-18T00:36:24.092Z,25.60
2023-09-18T00:39:25.138Z,20.70
2023-09-18T00:42:26.107Z,28.40
2023-09-18T00:45:27.141Z,20.10
2023-09-18T00:48:30.133Z,25.80
2023-09-18T00:51:32.147Z,22.90
2023-09-18T00:54:34.123Z,24.80
2023-09-18T00:57:35.146Z,19.10
2023-09-18T01:03:46.349Z,18.00
2023-09-18T01:06:47.188Z,25.10
2023-09-18T01:09:49.184Z,22.00
2023-09-18T01:13:24.197Z,19.90
2023-09-18T01:16:47.209Z,25.80
2023-09-18T01:20:02.274Z,23.00
2023-09-18T01:23:03.242Z,20.40
2023-09-18T01:26:04.251Z,18.10
2023-09-18T01:29:05.247Z,24.90
2023-09-18T01:32:07.265Z,23.80
2023-09-18T01:35:10.353Z,27.30
2023-09-18T01:38:14.265Z,24.80
2023-09-18T01:41:17.270Z,21.20
2023-09-18T01:44:18.302Z,17.50
2023-09-18T01:47:23.327Z,18.10
2023-09-18T01:50:24.373Z,25.20
2023-09-18T01:53:25.305Z,19.30
2023-09-18T01:56:26.337Z,23.30
2023-09-18T01:59:27.373Z,24.30
2023-09-18T02:02:32.428Z,35.60
2023-09-18T02:05:40.492Z,21.90
2023-09-18T02:08:41.387Z,18.20
2023-09-18T02:11:42.312Z,26.00
2023-09-18T02:14:43.306Z,23.50
2023-09-18T02:17:44.479Z,26.00
2023-09-18T02:20:46.318Z,16.90
2023-09-18T02:23:47.335Z,21.50
2023-09-18T02:26:48.342Z,17.20
2023-09-18T02:29:49.331Z,22.90
2023-09-18T02:32:50.437Z,23.30
2023-09-18T02:35:53.383Z,19.50
2023-09-18T02:38:54.613Z,23.30
2023-09-18T02:41:55.367Z,21.60
2023-09-18T02:44:56.379Z,18.90
2023-09-18T02:47:57.457Z,27.60
2023-09-18T02:50:58.418Z,21.40
2023-09-18T02:53:59.393Z,21.10
2023-09-18T02:57:00.420Z,18.00
2023-09-18T03:00:01.454Z,22.50
2023-09-18T03:03:02.573Z,23.90
2023-09-18T03:06:03.438Z,28.50
2023-09-18T03:09:04.442Z,24.30
2023-09-18T03:12:05.440Z,24.30
2023-09-18T03:15:06.478Z,21.20
2023-09-18T03:18:07.516Z,24.80
2023-09-18T03:21:09.469Z,22.30
2023-09-18T03:24:10.475Z,19.10
2023-09-18T03:27:11.451Z,20.50
2023-09-18T03:30:13.504Z,26.20
2023-09-18T03:33:14.525Z,23.70
2023-09-18T03:36:15.502Z,25.40
2023-09-18T03:39:17.485Z,23.40
2023-09-18T03:42:18.492Z,18.10
2023-09-18T03:45:25.500Z,28.30
2023-09-18T03:48:27.551Z,26.30
2023-09-18T03:51:29.534Z,26.80
2023-09-18T03:54:30.532Z,27.20
2023-09-18T03:57:31.508Z,34.50
2023-09-18T04:00:32.569Z,29.20
2023-09-18T04:03:33.628Z,23.80
2023-09-18T04:06:36.523Z,21.60
2023-09-18T04:09:37.560Z,25.10
2023-09-18T04:12:38.532Z,32.40
2023-09-18T04:15:39.614Z,22.70
2023-09-18T04:18:40.557Z,22.40
2023-09-18T04:21:41.591Z,24.00
2023-09-18T04:24:42.579Z,23.20
2023-09-18T04:27:36.595Z,24.30
2023-09-18T04:30:20.679Z,24.70
2023-09-18T04:33:07.673Z,20.10
2023-09-18T04:35:55.600Z,25.50
2023-09-18T04:38:56.593Z,28.50
2023-09-18T04:41:57.599Z,25.70
2023-09-18T04:44:58.619Z,25.80
2023-09-18T04:47:59.669Z,27.80
2023-09-18T04:51:00.649Z,29.10
2023-09-18T04:54:02.653Z,26.40
2023-09-18T04:57:03.657Z,26.30
2023-09-18T05:00:15.672Z,30.80
2023-09-18T05:03:18.775Z,24.80
2023-09-18T05:06:20.801Z,21.60
2023-09-18T05:09:22.673Z,28.20
2023-09-18T05:12:17.838Z,19.80
2023-09-18T05:15:20.690Z,20.90
2023-09-18T05:18:23.705Z,24.80
2023-09-18T05:21:25.755Z,23.00
2023-09-18T05:24:34.718Z,19.90
2023-09-18T05:27:35.707Z,24.80
2023-09-18T05:30:41.763Z,28.50
2023-09-18T05:33:42.751Z,24.90
2023-09-18T05:36:43.786Z,29.10
2023-09-18T05:39:44.765Z,22.90
2023-09-18T05:42:39.167Z,27.30
2023-09-18T05:45:39.770Z,24.50
2023-09-18T05:48:40.755Z,23.70
2023-09-18T05:51:42.799Z,24.80
2023-09-18T05:54:44.797Z,20.70
2023-09-18T05:57:45.844Z,18.40
2023-09-18T06:00:46.797Z,24.10
2023-09-18T06:03:47.881Z,22.50
2023-09-18T06:06:48.822Z,27.00
2023-09-18T06:09:42.860Z,37.20
2023-09-18T06:12:30.835Z,24.20
2023-09-18T06:15:31.820Z,19.40
2023-09-18T06:18:33.985Z,26.30
2023-09-18T06:21:34.828Z,19.80
2023-09-18T06:24:35.860Z,17.20
2023-09-18T06:27:36.853Z,20.10
2023-09-18T06:30:38.907Z,22.20
2023-09-18T06:33:39.886Z,16.50
2023-09-18T06:36:40.883Z,16.80
2023-09-18T06:39:41.885Z,17.80
2023-09-18T06:42:42.925Z,20.00
2023-09-18T06:45:45.862Z,21.30
2023-09-18T06:48:46.877Z,21.40
2023-09-18T06:51:47.898Z,16.10
2023-09-18T06:54:48.906Z,14.80
2023-09-18T06:57:49.950Z,26.70
2023-09-18T07:00:50.913Z,15.50
2023-09-18T07:03:52.058Z,13.10
2023-09-18T07:06:53.947Z,13.60
2023-09-18T07:12:59.995Z,14.40
2023-09-18T07:16:00.975Z,8.90
2023-09-18T07:19:01.971Z,6.40
2023-09-18T07:22:02.971Z,6.10
2023-09-18T07:25:04.003Z,11.10
2023-09-18T07:28:04.963Z,8.90
2023-09-18T07:31:05.984Z,7.00
2023-09-18T07:34:06.979Z,7.30
2023-09-18T07:37:08.020Z,6.20
2023-09-18T07:40:09.006Z,5.90
2023-09-18T07:43:10.019Z,7.40
2023-09-18T07:46:11.013Z,9.40
2023-09-18T07:49:12.159Z,6.00
2023-09-18T07:52:13.042Z,7.10
2023-09-18T07:55:14.042Z,7.80
2023-09-18T07:58:15.034Z,7.10
2023-09-18T08:01:18.133Z,8.50
2023-09-18T08:04:19.205Z,12.80
2023-09-18T08:07:20.058Z,7.80
2023-09-18T08:10:22.071Z,15.70
2023-09-18T08:13:23.063Z,12.50
2023-09-18T08:16:18.549Z,9.30
2023-09-18T08:19:19.180Z,8.20
2023-09-18T08:22:23.125Z,9.70
2023-09-18T08:25:25.112Z,8.40
2023-09-18T08:28:26.133Z,8.30
2023-09-18T08:31:27.168Z,10.00
2023-09-18T08:34:29.582Z,6.80
2023-09-18T08:37:31.167Z,10.40
2023-09-18T08:40:33.162Z,9.90
2023-09-18T08:43:35.170Z,7.20
2023-09-18T08:46:36.136Z,10.30
2023-09-18T08:49:39.195Z,8.40
2023-09-18T08:52:41.156Z,8.10
2023-09-18T08:55:43.212Z,7.40
2023-09-18T08:58:50.180Z,7.50
2023-09-18T09:01:51.212Z,8.80
2023-09-18T09:04:54.313Z,8.10
2023-09-18T09:08:06.196Z,7.50
2023-09-18T09:11:07.186Z,7.90
2023-09-18T09:14:30.411Z,8.00
2023-09-18T09:17:33.272Z,8.10
2023-09-18T09:23:35.254Z,7.90
2023-09-18T09:26:38.281Z,7.20
2023-09-18T09:29:39.294Z,6.40
2023-09-18T09:32:48.347Z,9.90
2023-09-18T09:35:51.287Z,8.40
2023-09-18T09:38:52.531Z,10.50
2023-09-18T09:42:01.498Z,13.80
2023-09-18T09:45:02.291Z,9.30
2023-09-18T09:48:03.352Z,11.00
2023-09-18T09:51:04.346Z,8.00
2023-09-18T09:54:06.303Z,9.70
2023-09-18T09:57:07.315Z,8.10
2023-09-18T10:00:30.334Z,7.30
2023-09-18T10:03:35.534Z,6.60
2023-09-18T10:06:38.380Z,6.80
2023-09-18T10:12:44.344Z,6.70
2023-09-18T10:19:16.416Z,7.60
2023-09-18T10:22:28.358Z,7.40
2023-09-18T10:25:32.416Z,8.60
2023-09-18T10:28:34.391Z,6.60
2023-09-18T10:31:35.420Z,7.30
2023-09-18T10:34:31.470Z,7.70
2023-09-18T10:37:12.571Z,6.40
2023-09-18T10:40:02.464Z,6.70
2023-09-18T10:42:47.697Z,9.40
2023-09-18T10:45:35.431Z,6.90
2023-09-18T10:48:16.750Z,7.40
2023-09-18T10:51:04.468Z,5.90
2023-09-18T10:54:05.512Z,6.90
2023-09-18T10:57:07.475Z,6.30
2023-09-18T11:00:10.471Z,6.90
2023-09-18T11:03:44.625Z,6.60
2023-09-18T11:06:52.481Z,6.50
2023-09-18T11:09:59.497Z,6.10
2023-09-18T11:13:02.469Z,5.70
2023-09-18T11:19:06.695Z,5.80
2023-09-18T11:22:22.492Z,6.20
2023-09-18T11:25:49.612Z,5.90
2023-09-18T11:28:56.866Z,5.80
2023-09-18T11:32:06.181Z,6.00
2023-09-18T11:35:25.667Z,7.20
2023-09-18T11:38:26.616Z,6.70
2023-09-18T11:41:36.581Z,11.40
2023-09-18T11:44:44.571Z,7.00
2023-09-18T11:47:50.613Z,6.80
2023-09-18T11:50:51.624Z,8.20
2023-09-18T11:53:55.672Z,7.20
2023-09-18T11:56:56.631Z,7.50
2023-09-18T12:00:19.618Z,7.90
2023-09-18T12:03:35.902Z,10.70
2023-09-18T12:06:36.637Z,7.50
2023-09-18T12:09:37.665Z,7.90
2023-09-18T12:12:39.648Z,11.50
2023-09-18T12:15:41.646Z,6.90
2023-09-18T12:18:44.676Z,8.50
2023-09-18T12:21:45.712Z,7.30
2023-09-18T12:24:47.663Z,7.10
2023-09-18T12:27:50.643Z,15.00
2023-09-18T12:30:52.137Z,11.50
2023-09-18T12:33:55.819Z,11.60
2023-09-18T12:36:57.744Z,7.70
2023-09-18T12:39:59.684Z,7.70
2023-09-18T12:43:01.685Z,9.50
2023-09-18T12:46:03.733Z,7.40
2023-09-18T12:49:04.727Z,7.60
2023-09-18T12:52:09.261Z,11.60
2023-09-18T12:55:11.718Z,9.10
2023-09-18T12:58:19.743Z,7.50
2023-09-18T13:01:22.777Z,6.90
2023-09-18T13:04:27.820Z,14.70
2023-09-18T13:07:28.754Z,12.50
2023-09-18T13:10:29.764Z,7.50
2023-09-18T13:13:33.748Z,7.60
2023-09-18T13:16:36.786Z,7.50
2023-09-18T13:19:37.789Z,6.80
2023-09-18T13:22:41.784Z,7.00
2023-09-18T13:25:53.798Z,8.30
2023-09-18T13:28:54.842Z,7.40
2023-09-18T13:31:55.825Z,6.60
2023-09-18T13:34:56.871Z,7.30
2023-09-18T13:37:58.811Z,8.10
2023-09-18T13:41:02.859Z,7.50
2023-09-18T13:44:04.819Z,8.40
2023-09-18T13:47:06.887Z,10.20
2023-09-18T13:50:07.859Z,11.90
2023-09-18T13:53:04.063Z,7.00
2023-09-18T13:56:04.842Z,6.90
2023-09-18T13:59:05.854Z,7.30
2023-09-18T14:02:06.864Z,11.60
2023-09-18T14:05:08.966Z,9.20
2023-09-18T14:08:10.914Z,7.40
2023-09-18T14:11:14.722Z,7.70
2023-09-18T14:14:15.888Z,8.60
2023-09-18T14:17:17.892Z,7.80
2023-09-18T14:20:20.326Z,6.90
2023-09-18T14:23:14.941Z,7.40
2023-09-18T14:26:21.589Z,8.20
2023-09-18T14:29:22.939Z,7.50
2023-09-18T14:32:23.984Z,9.40
2023-09-18T14:35:24.984Z,9.20
2023-09-18T14:38:26.055Z,11.20
2023-09-18T14:41:28.962Z,7.60
2023-09-18T14:44:29.966Z,9.00
2023-09-18T14:47:31.085Z,7.60
2023-09-18T14:50:32.078Z,6.90
2023-09-18T14:53:33.020Z,8.10
2023-09-18T14:56:34.017Z,14.60
2023-09-18T14:59:42.087Z,19.50
2023-09-18T15:02:44.166Z,17.20
2023-09-18T15:05:46.028Z,30.80
2023-09-18T15:08:47.020Z,17.10
2023-09-18T15:11:49.046Z,16.80
2023-09-18T15:14:50.118Z,24.70
2023-09-18T15:17:51.150Z,25.00
2023-09-18T15:20:52.124Z,22.30
2023-09-18T15:23:53.083Z,20.90
2023-09-18T15:26:47.296Z,23.20
2023-09-18T15:29:48.120Z,25.10
2023-09-18T15:33:08.233Z,25.20
2023-09-18T15:36:10.095Z,26.20
2023-09-18T15:39:11.087Z,29.30
2023-09-18T15:42:12.103Z,20.50
2023-09-18T15:45:13.134Z,24.20
2023-09-18T15:48:14.208Z,24.10
2023-09-18T15:51:15.146Z,23.10
2023-09-18T15:54:16.138Z,22.00
2023-09-18T15:57:17.147Z,21.50
2023-09-18T16:00:20.195Z,24.00
2023-09-18T16:03:21.291Z,19.60
2023-09-18T16:06:22.380Z,38.20
2023-09-18T16:09:23.160Z,31.00
2023-09-18T16:12:24.213Z,50.30
2023-09-18T16:15:25.211Z,38.90
2023-09-18T16:18:26.260Z,36.00
2023-09-18T16:21:27.188Z,19.60
2023-09-18T16:24:28.191Z,27.50
2023-09-18T16:27:22.310Z,15.80
2023-09-18T16:30:26.213Z,16.50
2023-09-18T16:33:27.346Z,12.90
2023-09-18T16:36:28.227Z,22.10
2023-09-18T16:39:31.214Z,19.80
2023-09-18T16:42:34.227Z,18.60
2023-09-18T16:45:35.386Z,12.70
2023-09-18T16:48:38.419Z,29.50
2023-09-18T16:51:39.256Z,13.90
2023-09-18T16:54:41.231Z,28.80
2023-09-18T16:57:42.289Z,18.10
2023-09-18T17:00:43.285Z,20.50
2023-09-18T17:03:52.444Z,11.20
2023-09-18T17:06:53.295Z,14.10
2023-09-18T17:09:54.301Z,12.60
2023-09-18T17:12:55.306Z,11.10
2023-09-18T17:15:57.347Z,13.20
2023-09-18T17:19:03.324Z,10.60
2023-09-18T17:22:08.335Z,11.20
2023-09-18T17:25:09.373Z,19.10
2023-09-18T17:28:13.358Z,10.40
2023-09-18T17:31:14.405Z,16.20
2023-09-18T17:34:15.363Z,16.40
2023-09-18T17:37:16.354Z,12.90
2023-09-18T17:40:17.355Z,13.10
2023-09-18T17:43:18.386Z,12.10
2023-09-18T17:46:20.381Z,39.50
2023-09-18T17:49:21.386Z,42.90
2023-09-18T17:52:24.585Z,15.60
2023-09-18T17:55:26.396Z,16.40
2023-09-18T17:58:27.398Z,19.20
2023-09-18T18:01:28.539Z,13.60
2023-09-18T18:04:29.635Z,15.70
2023-09-18T18:07:30.451Z,14.30
2023-09-18T18:10:31.449Z,21.50
2023-09-18T18:13:32.477Z,29.10
2023-09-18T18:16:33.437Z,25.90
2023-09-18T18:19:34.438Z,21.30
2023-09-18T18:22:28.460Z,26.30
2023-09-18T18:25:16.454Z,24.20
2023-09-18T18:28:18.482Z,22.50
2023-09-18T18:31:20.496Z,23.50
2023-09-18T18:34:21.474Z,22.40
2023-09-18T18:37:23.482Z,24.30
2023-09-18T18:40:27.514Z,23.10
2023-09-18T18:43:28.503Z,24.30
2023-09-18T18:46:30.521Z,29.10
2023-09-18T18:49:31.520Z,27.30
2023-09-18T18:52:32.528Z,26.60
2023-09-18T18:55:33.536Z,27.70
2023-09-18T18:58:35.654Z,34.30
2023-09-18T19:01:37.542Z,23.20
2023-09-18T19:04:38.596Z,34.00
2023-09-18T19:07:39.566Z,32.80
2023-09-18T19:10:40.547Z,29.20
2023-09-18T19:13:41.628Z,25.30
2023-09-18T19:16:43.614Z,23.00
2023-09-18T19:19:44.562Z,27.30
2023-09-18T19:22:45.571Z,24.70
2023-09-18T19:25:46.600Z,28.30
2023-09-18T19:28:47.608Z,27.30
2023-09-18T19:31:49.625Z,34.10
2023-09-18T19:34:50.610Z,37.20
2023-09-18T19:37:51.636Z,24.20
2023-09-18T19:40:53.610Z,35.80
2023-09-18T19:43:54.623Z,30.70
2023-09-18T19:46:56.637Z,26.40
2023-09-18T19:49:58.636Z,22.40
2023-09-18T19:53:00.672Z,28.20
2023-09-18T19:56:01.674Z,20.90
2023-09-18T19:59:02.700Z,28.40
2023-09-18T20:02:03.678Z,27.10
2023-09-18T20:05:06.695Z,24.90
2023-09-18T20:08:07.823Z,23.30
2023-09-18T20:11:10.716Z,20.70
2023-09-18T20:14:21.230Z,19.60
2023-09-18T20:17:25.841Z,21.20
2023-09-18T20:20:26.720Z,24.30
2023-09-18T20:23:27.744Z,24.20
2023-09-18T20:26:29.728Z,21.20
2023-09-18T20:29:32.754Z,18.70
2023-09-18T20:32:33.834Z,23.40
2023-09-18T20:35:34.781Z,35.30
2023-09-18T20:38:35.823Z,16.70
2023-09-18T20:41:36.797Z,16.30
2023-09-18T20:44:37.816Z,17.50
2023-09-18T20:47:38.829Z,17.60
2023-09-18T20:50:40.821Z,17.10
2023-09-18T20:53:41.796Z,20.60
2023-09-18T20:56:43.851Z,15.60
2023-09-18T20:59:45.438Z,20.40
2023-09-18T21:02:52.897Z,16.70
2023-09-18T21:05:54.842Z,17.50
2023-09-18T21:08:55.839Z,20.10
2023-09-18T21:11:56.840Z,23.40
2023-09-18T21:14:57.885Z,32.50
2023-09-18T21:17:58.884Z,37.30
2023-09-18T21:20:59.845Z,24.70
2023-09-18T21:23:53.904Z,28.50
2023-09-18T21:26:41.886Z,33.30
2023-09-18T21:29:42.931Z,26.60
2023-09-18T21:32:43.903Z,27.00
2023-09-18T21:35:44.961Z,37.90
2023-09-18T21:38:45.983Z,25.40
2023-09-18T21:41:47.929Z,32.80
2023-09-18T21:44:42.101Z,31.70
2023-09-18T21:47:43.046Z,28.80
2023-09-18T21:50:43.936Z,47.00
2023-09-18T21:53:45.904Z,25.60
2023-09-18T21:56:46.931Z,23.70
2023-09-18T21:59:47.939Z,30.60
2023-09-18T22:02:49.046Z,21.40
2023-09-18T22:05:54.021Z,32.40
2023-09-18T22:08:55.054Z,27.60
2023-09-18T22:11:56.019Z,36.80
2023-09-18T22:14:57.991Z,40.40
2023-09-18T22:17:59.061Z,40.40
2023-09-18T22:21:00.040Z,29.50
2023-09-18T22:24:01.040Z,30.00
2023-09-18T22:27:02.024Z,28.30
2023-09-18T22:30:03.049Z,27.10
2023-09-18T22:33:04.085Z,22.20
2023-09-18T22:36:13.174Z,21.40
2023-09-18T22:39:47.005Z,28.40
2023-09-18T22:46:46.108Z,27.90
2023-09-18T22:50:25.032Z,24.20
2023-09-18T22:53:27.042Z,20.00
2023-09-18T22:56:31.055Z,29.30
2023-09-18T22:59:33.050Z,18.30
2023-09-18T23:02:35.152Z,20.40
2023-09-18T23:05:37.082Z,23.80
2023-09-18T23:08:38.098Z,25.10
2023-09-18T23:11:39.093Z,23.10
2023-09-18T23:14:41.086Z,24.40
2023-09-18T23:17:35.984Z,26.30
2023-09-18T23:20:38.102Z,26.80
2023-09-18T23:23:39.239Z,37.80
2023-09-18T23:26:40.118Z,30.60
2023-09-18T23:29:45.107Z,25.70
2023-09-18T23:32:46.134Z,31.80
2023-09-18T23:35:47.127Z,44.00
2023-09-18T23:38:49.136Z,30.60
2023-09-18T23:41:53.608Z,39.00
2023-09-18T23:44:57.127Z,45.30
2023-09-18T23:48:00.209Z,34.60
2023-09-18T23:51:02.167Z,26.00
2023-09-18T23:54:03.166Z,26.70
2023-09-18T23:57:04.170Z,31.00
